createdAt,value
2023-05-21T00:01:05.816Z,19.35
2023-05-21T00:03:33.966Z,16.42
2023-05-21T00:06:03.616Z,19.80
2023-05-21T00:08:31.345Z,17.27
2023-05-21T00:10:58.982Z,21.93
2023-05-21T00:13:26.662Z,19.05
2023-05-21T00:15:55.560Z,18.20
2023-05-21T00:18:25.274Z,18.70
2023-05-21T00:20:53.387Z,21.10
2023-05-21T00:23:21.431Z,18.43
2023-05-21T00:25:50.411Z,23.25
2023-05-21T00:28:18.104Z,19.73
2023-05-21T00:30:47.244Z,21.25
2023-05-21T00:33:16.249Z,17.70
2023-05-21T00:35:43.913Z,21.07
2023-05-21T00:38:11.452Z,20.00
2023-05-21T00:40:41.215Z,23.00
2023-05-21T00:43:11.458Z,21.20
2023-05-21T00:45:39.570Z,25.48
2023-05-21T00:48:07.913Z,21.70
2023-05-21T00:50:39.608Z,22.40
2023-05-21T00:53:09.543Z,24.20
2023-05-21T00:55:37.813Z,20.88
2023-05-21T00:58:06.134Z,26.23
2023-05-21T01:00:35.862Z,23.10
2023-05-21T01:03:03.673Z,25.75
2023-05-21T01:05:32.467Z,26.58
2023-05-21T01:08:01.637Z,27.77
2023-05-21T01:10:30.656Z,24.58
2023-05-21T01:12:59.906Z,23.27
2023-05-21T01:15:28.037Z,21.85
2023-05-21T01:17:57.170Z,24.98
2023-05-21T01:20:26.690Z,22.25
2023-05-21T01:22:56.805Z,25.10
2023-05-21T01:25:24.960Z,25.90
2023-05-21T01:27:52.812Z,24.52
2023-05-21T01:30:23.089Z,23.52
2023-05-21T01:32:57.775Z,25.20
2023-05-21T01:35:29.202Z,24.90
2023-05-21T01:38:04.344Z,25.00
2023-05-21T01:40:39.201Z,24.15
2023-05-21T01:43:08.232Z,26.73
2023-05-21T01:45:37.780Z,29.10
2023-05-21T01:48:06.830Z,28.33
2023-05-21T01:50:36.391Z,26.37
2023-05-21T01:53:05.929Z,27.73
2023-05-21T01:55:34.205Z,28.55
2023-05-21T01:58:02.632Z,30.08
2023-05-21T02:00:32.251Z,28.85
2023-05-21T02:03:00.076Z,28.70
2023-05-21T02:05:27.680Z,30.40
2023-05-21T02:07:55.396Z,29.25
2023-05-21T02:10:24.526Z,29.90
2023-05-21T02:12:52.189Z,27.38
2023-05-21T02:15:19.915Z,30.27
2023-05-21T02:17:47.928Z,32.42
2023-05-21T02:20:15.544Z,30.42
2023-05-21T02:22:44.733Z,28.05
2023-05-21T02:25:13.853Z,30.92
2023-05-21T02:27:44.530Z,29.73
2023-05-21T02:30:13.535Z,33.00
2023-05-21T02:32:42.555Z,28.70
2023-05-21T02:35:12.257Z,28.67
2023-05-21T02:37:41.146Z,29.30
2023-05-21T02:40:10.691Z,30.73
2023-05-21T02:42:40.087Z,28.83
2023-05-21T02:45:11.594Z,31.33
2023-05-21T02:47:39.538Z,29.05
2023-05-21T02:50:08.568Z,32.97
2023-05-21T02:52:36.451Z,32.13
2023-05-21T02:55:04.405Z,30.65
2023-05-21T02:57:32.018Z,30.45
2023-05-21T02:59:59.718Z,33.28
2023-05-21T03:02:28.888Z,38.90
2023-05-21T03:04:56.428Z,35.17
2023-05-21T03:07:24.228Z,39.95
2023-05-21T03:09:51.862Z,38.25
2023-05-21T03:12:19.432Z,34.25
2023-05-21T03:14:47.196Z,33.80
2023-05-21T03:17:15.046Z,39.27
2023-05-21T03:19:44.706Z,44.05
2023-05-21T03:22:12.345Z,42.30
2023-05-21T03:24:41.264Z,42.47
2023-05-21T03:27:09.135Z,39.95
2023-05-21T03:29:37.568Z,39.20
2023-05-21T03:32:06.187Z,36.67
2023-05-21T03:34:35.512Z,33.25
2023-05-21T03:37:04.374Z,35.35
2023-05-21T03:39:31.917Z,35.35
2023-05-21T03:41:59.458Z,34.73
2023-05-21T03:44:26.996Z,34.83
2023-05-21T03:46:54.527Z,38.28
2023-05-21T03:49:22.223Z,36.80
2023-05-21T03:51:49.788Z,35.80
2023-05-21T03:54:18.850Z,34.17
2023-05-21T03:56:46.326Z,36.13
2023-05-21T03:59:13.849Z,35.88
2023-05-21T04:01:41.502Z,41.83
2023-05-21T04:04:09.293Z,41.75
2023-05-21T04:06:38.206Z,34.83
2023-05-21T04:09:05.744Z,38.78
2023-05-21T04:11:34.693Z,38.53
2023-05-21T04:14:02.790Z,38.10
2023-05-21T04:16:30.589Z,37.42
2023-05-21T04:18:58.223Z,38.00
2023-05-21T04:21:25.942Z,37.38
2023-05-21T04:23:54.325Z,39.60
2023-05-21T04:26:22.770Z,39.50
2023-05-21T04:28:54.055Z,47.30
2023-05-21T04:31:23.278Z,40.83
2023-05-21T04:33:51.953Z,41.80
2023-05-21T04:36:20.089Z,41.55
2023-05-21T04:38:48.690Z,43.05
2023-05-21T04:41:18.698Z,39.20
2023-05-21T04:43:46.206Z,40.33
2023-05-21T04:46:15.157Z,42.38
2023-05-21T04:48:42.745Z,41.45
2023-05-21T04:51:10.390Z,34.60
2023-05-21T04:53:38.776Z,42.58
2023-05-21T04:56:07.189Z,51.47
2023-05-21T04:58:34.756Z,42.58
2023-05-21T05:01:03.272Z,43.38
2023-05-21T05:03:32.336Z,36.88
2023-05-21T05:05:59.890Z,35.85
2023-05-21T05:08:27.482Z,34.77
2023-05-21T05:10:55.073Z,36.85
2023-05-21T05:13:22.789Z,35.83
2023-05-21T05:15:51.528Z,36.40
2023-05-21T05:18:20.878Z,38.58
2023-05-21T05:20:49.951Z,34.37
2023-05-21T05:23:17.536Z,38.08
2023-05-21T05:25:45.125Z,33.63
2023-05-21T05:28:12.721Z,34.35
2023-05-21T05:30:40.344Z,35.03
2023-05-21T05:33:08.024Z,33.33
2023-05-21T05:35:36.446Z,32.00
2023-05-21T05:38:05.788Z,35.33
2023-05-21T05:40:33.463Z,31.75
2023-05-21T05:43:01.222Z,34.17
2023-05-21T05:45:28.876Z,32.90
2023-05-21T05:47:56.468Z,35.80
2023-05-21T05:50:24.186Z,33.25
2023-05-21T05:52:52.104Z,32.65
2023-05-21T05:55:21.955Z,31.30
2023-05-21T05:57:49.512Z,31.87
2023-05-21T06:00:18.486Z,30.45
2023-05-21T06:02:46.518Z,29.30
2023-05-21T06:05:14.208Z,30.30
2023-05-21T06:07:42.420Z,32.08
2023-05-21T06:10:10.863Z,27.90
2023-05-21T06:12:40.038Z,30.15
2023-05-21T06:15:08.809Z,35.22
2023-05-21T06:17:36.511Z,31.58
2023-05-21T06:20:05.135Z,30.30
2023-05-21T06:22:32.695Z,29.93
2023-05-21T06:25:00.262Z,30.58
2023-05-21T06:27:27.963Z,26.60
2023-05-21T06:29:57.266Z,29.63
2023-05-21T06:32:25.612Z,26.67
2023-05-21T06:34:53.243Z,27.70
2023-05-21T06:37:21.936Z,28.80
2023-05-21T06:39:50.013Z,27.77
2023-05-21T06:42:17.647Z,24.95
2023-05-21T06:44:46.641Z,28.90
2023-05-21T06:47:15.711Z,23.87
2023-05-21T06:49:43.550Z,29.30
2023-05-21T06:52:11.219Z,29.70
2023-05-21T06:54:38.862Z,25.90
2023-05-21T06:57:06.776Z,24.67
2023-05-21T06:59:34.412Z,27.53
2023-05-21T07:02:04.332Z,23.35
2023-05-21T07:04:35.107Z,20.38
2023-05-21T07:07:04.391Z,26.85
2023-05-21T07:09:32.299Z,26.77
2023-05-21T07:11:59.804Z,24.33
2023-05-21T07:14:27.318Z,22.30
2023-05-21T07:16:54.789Z,25.55
2023-05-21T07:19:22.404Z,21.80
2023-05-21T07:21:51.535Z,24.08
2023-05-21T07:24:19.012Z,20.47
2023-05-21T07:26:46.597Z,23.15
2023-05-21T07:29:14.145Z,24.05
2023-05-21T07:31:41.719Z,24.77
2023-05-21T07:34:09.246Z,22.52
2023-05-21T07:36:36.925Z,24.07
2023-05-21T07:39:05.905Z,22.98
2023-05-21T07:41:33.605Z,21.05
2023-05-21T07:44:02.206Z,22.58
2023-05-21T07:46:29.656Z,19.80
2023-05-21T07:48:57.239Z,22.13
2023-05-21T07:51:25.157Z,20.88
2023-05-21T07:53:55.030Z,22.58
2023-05-21T07:56:24.393Z,21.30
2023-05-21T07:58:51.908Z,21.90
2023-05-21T08:01:19.459Z,22.40
2023-05-21T08:03:47.014Z,19.67
2023-05-21T08:06:14.616Z,21.35
2023-05-21T08:08:42.065Z,21.33
2023-05-21T08:11:09.617Z,21.10
2023-05-21T08:13:38.507Z,16.07
2023-05-21T08:16:07.091Z,20.08
2023-05-21T08:18:34.567Z,17.75
2023-05-21T08:21:02.091Z,21.05
2023-05-21T08:23:29.660Z,18.88
2023-05-21T08:25:57.137Z,19.97
2023-05-21T08:28:24.612Z,18.77
2023-05-21T08:30:53.481Z,20.58
2023-05-21T08:33:21.626Z,21.25
2023-05-21T08:35:49.112Z,21.75
2023-05-21T08:38:17.581Z,19.90
2023-05-21T08:40:47.639Z,21.27
2023-05-21T08:43:16.469Z,18.23
2023-05-21T08:45:48.651Z,18.85
2023-05-21T08:48:18.203Z,17.13
2023-05-21T08:50:46.365Z,20.37
2023-05-21T08:53:23.923Z,19.50
2023-05-21T08:55:57.046Z,18.58
2023-05-21T08:58:24.653Z,18.33
2023-05-21T09:00:52.223Z,19.17
2023-05-21T09:03:22.438Z,17.03
2023-05-21T09:05:51.122Z,17.40
2023-05-21T09:08:20.125Z,18.13
2023-05-21T09:10:50.473Z,16.20
2023-05-21T09:13:19.104Z,17.88
2023-05-21T09:15:46.971Z,19.57
2023-05-21T09:18:15.081Z,21.80
2023-05-21T09:20:45.255Z,21.17
2023-05-21T09:23:16.828Z,19.35
2023-05-21T09:25:47.394Z,20.20
2023-05-21T09:28:16.323Z,19.23
2023-05-21T09:30:47.231Z,23.75
2023-05-21T09:33:25.435Z,19.42
2023-05-21T09:35:54.354Z,17.38
2023-05-21T09:38:23.522Z,14.82
2023-05-21T09:40:51.068Z,14.60
2023-05-21T09:43:19.003Z,18.63
2023-05-21T09:45:53.244Z,15.13
2023-05-21T09:48:35.031Z,17.45
2023-05-21T09:51:14.915Z,20.95
2023-05-21T09:53:51.036Z,16.87
2023-05-21T09:56:22.244Z,18.35
2023-05-21T09:58:49.949Z,20.98
2023-05-21T10:01:20.142Z,15.93
2023-05-21T10:03:53.765Z,21.08
2023-05-21T10:06:25.192Z,15.57
2023-05-21T10:08:54.895Z,16.27
2023-05-21T10:11:24.876Z,16.30
2023-05-21T10:13:58.668Z,18.33
2023-05-21T10:16:26.659Z,16.67
2023-05-21T10:18:57.559Z,19.87
2023-05-21T10:21:27.748Z,16.17
2023-05-21T10:23:58.311Z,19.40
2023-05-21T10:26:26.298Z,18.13
2023-05-21T10:28:55.975Z,15.65
2023-05-21T10:31:23.969Z,11.73
2023-05-21T10:33:52.081Z,16.38
2023-05-21T10:36:21.869Z,16.50
2023-05-21T10:38:50.786Z,17.75
2023-05-21T10:41:20.933Z,14.48
2023-05-21T10:44:02.345Z,12.37
2023-05-21T10:46:55.890Z,16.52
2023-05-21T10:49:47.045Z,14.95
2023-05-21T10:52:24.492Z,18.83
2023-05-21T10:55:06.336Z,18.58
2023-05-21T10:58:10.709Z,12.93
2023-05-21T11:00:38.931Z,18.00
2023-05-21T11:03:08.453Z,15.57
2023-05-21T11:05:40.481Z,15.60
2023-05-21T11:08:22.129Z,12.43
2023-05-21T11:10:55.651Z,14.03
2023-05-21T11:13:23.629Z,16.10
2023-05-21T11:16:15.726Z,20.10
2023-05-21T11:19:02.315Z,18.33
2023-05-21T11:21:31.853Z,20.98
2023-05-21T11:24:04.542Z,15.10
2023-05-21T11:27:06.830Z,15.45
2023-05-21T11:29:45.295Z,13.18
2023-05-21T11:32:15.163Z,16.48
2023-05-21T11:34:45.750Z,21.15
2023-05-21T11:37:28.898Z,17.87
2023-05-21T11:39:57.551Z,18.20
2023-05-21T11:42:34.177Z,16.50
2023-05-21T11:45:04.046Z,19.55
2023-05-21T11:47:33.203Z,16.58
2023-05-21T11:50:02.035Z,19.63
2023-05-21T11:52:30.959Z,18.25
2023-05-21T11:54:59.802Z,17.60
2023-05-21T11:57:31.146Z,18.95
2023-05-21T12:00:02.259Z,12.05
2023-05-21T12:02:32.445Z,16.57
2023-05-21T12:05:00.727Z,17.42
2023-05-21T12:07:29.789Z,18.58
2023-05-21T12:09:57.966Z,19.05
2023-05-21T12:12:33.034Z,17.08
2023-05-21T12:15:10.103Z,15.53
2023-05-21T12:17:37.751Z,19.63
2023-05-21T12:20:08.190Z,21.88
2023-05-21T12:22:35.692Z,15.73
2023-05-21T12:25:05.402Z,16.67
2023-05-21T12:27:34.718Z,19.97
2023-05-21T12:30:02.941Z,22.35
2023-05-21T12:32:32.364Z,22.35
2023-05-21T12:35:00.196Z,25.25
2023-05-21T12:37:31.255Z,17.40
2023-05-21T12:40:00.752Z,19.13
2023-05-21T12:42:30.392Z,26.13
2023-05-21T12:44:58.567Z,19.80
2023-05-21T12:47:27.119Z,18.70
2023-05-21T12:49:58.838Z,21.35
2023-05-21T12:52:27.217Z,17.23
2023-05-21T12:54:56.337Z,19.65
2023-05-21T12:57:28.024Z,20.00
2023-05-21T12:59:57.382Z,20.48
2023-05-21T13:02:26.309Z,18.92
2023-05-21T13:04:59.809Z,20.23
2023-05-21T13:07:30.102Z,22.65
2023-05-21T13:09:58.185Z,18.92
2023-05-21T13:12:27.037Z,15.60
2023-05-21T13:14:56.511Z,15.07
2023-05-21T13:17:25.205Z,20.43
2023-05-21T13:20:08.823Z,21.70
2023-05-21T13:22:39.011Z,21.63
2023-05-21T13:25:08.837Z,19.92
2023-05-21T13:27:36.353Z,24.70
2023-05-21T13:30:04.398Z,21.40
2023-05-21T13:32:31.954Z,22.02
2023-05-21T13:34:59.510Z,21.00
2023-05-21T13:37:31.710Z,26.55
2023-05-21T13:39:59.971Z,19.67
2023-05-21T13:42:27.599Z,19.70
2023-05-21T13:44:55.077Z,21.80
2023-05-21T13:47:22.876Z,20.85
2023-05-21T13:49:50.707Z,22.75
2023-05-21T13:52:18.648Z,20.60
2023-05-21T13:54:47.524Z,22.03
2023-05-21T13:57:15.386Z,19.35
2023-05-21T13:59:43.032Z,21.02
2023-05-21T14:02:11.223Z,27.05
2023-05-21T14:04:39.700Z,17.50
2023-05-21T14:07:07.780Z,22.37
2023-05-21T14:09:35.651Z,22.67
2023-05-21T14:12:06.428Z,15.30
2023-05-21T14:14:34.360Z,21.48
2023-05-21T14:17:02.069Z,17.83
2023-05-21T14:19:29.636Z,19.37
2023-05-21T14:21:57.680Z,17.40
2023-05-21T14:24:25.238Z,20.60
2023-05-21T14:26:52.837Z,19.27
2023-05-21T14:29:21.749Z,16.15
2023-05-21T14:31:49.385Z,16.37
2023-05-21T14:34:17.034Z,19.90
2023-05-21T14:36:44.631Z,16.25
2023-05-21T14:39:12.255Z,20.23
2023-05-21T14:41:40.419Z,19.90
2023-05-21T14:44:08.157Z,17.97
2023-05-21T14:46:37.522Z,12.70
2023-05-21T14:49:05.124Z,21.90
2023-05-21T14:51:32.667Z,18.92
2023-05-21T14:54:00.207Z,19.63
2023-05-21T14:56:28.170Z,17.83
2023-05-21T14:58:55.908Z,20.92
2023-05-21T15:01:23.787Z,19.20
2023-05-21T15:03:52.847Z,21.40
2023-05-21T15:06:20.467Z,18.60
2023-05-21T15:08:48.060Z,17.60
2023-05-21T15:11:15.855Z,20.45
2023-05-21T15:13:43.364Z,17.75
2023-05-21T15:16:11.234Z,20.15
2023-05-21T15:18:38.892Z,22.05
2023-05-21T15:21:07.817Z,20.73
2023-05-21T15:23:35.322Z,20.73
2023-05-21T15:26:02.907Z,14.27
2023-05-21T15:28:30.469Z,21.83
2023-05-21T15:30:57.932Z,15.32
2023-05-21T15:33:25.442Z,19.57
2023-05-21T15:35:53.093Z,17.60
2023-05-21T15:38:21.939Z,18.70
2023-05-21T15:40:49.429Z,16.55
2023-05-21T15:43:16.992Z,21.63
2023-05-21T15:45:44.534Z,19.07
2023-05-21T15:48:13.051Z,21.02
2023-05-21T15:50:40.602Z,19.48
2023-05-21T15:53:08.117Z,20.10
2023-05-21T15:55:37.239Z,21.83
2023-05-21T15:58:05.056Z,23.70
2023-05-21T16:00:32.610Z,22.48
2023-05-21T16:03:00.269Z,19.02
2023-05-21T16:05:28.087Z,18.20
2023-05-21T16:07:55.734Z,20.38
2023-05-21T16:10:23.616Z,23.40
2023-05-21T16:12:52.466Z,20.42
2023-05-21T16:15:19.973Z,21.67
2023-05-21T16:17:47.598Z,20.88
2023-05-21T16:20:16.042Z,19.45
2023-05-21T16:22:43.553Z,21.50
2023-05-21T16:25:11.089Z,18.45
2023-05-21T16:27:38.625Z,20.95
2023-05-21T16:30:08.901Z,20.10
2023-05-21T16:32:36.607Z,18.20
2023-05-21T16:35:04.787Z,21.67
2023-05-21T16:37:32.340Z,21.13
2023-05-21T16:39:59.839Z,19.83
2023-05-21T16:42:27.470Z,21.67
2023-05-21T16:44:55.040Z,21.42
2023-05-21T16:47:23.950Z,21.87
2023-05-21T16:49:51.476Z,21.10
2023-05-21T16:52:18.981Z,24.50
2023-05-21T16:54:48.750Z,24.27
2023-05-21T16:57:16.513Z,21.52
2023-05-21T16:59:44.538Z,23.10
2023-05-21T17:02:13.420Z,21.08
2023-05-21T17:04:42.264Z,22.48
2023-05-21T17:07:09.762Z,23.23
2023-05-21T17:09:37.373Z,27.60
2023-05-21T17:12:05.470Z,20.43
2023-05-21T17:14:34.615Z,21.85
2023-05-21T17:17:02.518Z,26.40
2023-05-21T17:19:30.240Z,20.52
2023-05-21T17:21:59.371Z,25.92
2023-05-21T17:24:26.884Z,24.47
2023-05-21T17:26:54.688Z,21.95
2023-05-21T17:29:22.221Z,23.77
2023-05-21T17:31:51.975Z,22.40
2023-05-21T17:34:19.549Z,23.20
2023-05-21T17:36:47.088Z,21.73
2023-05-21T17:39:15.966Z,23.25
2023-05-21T17:41:43.507Z,22.40
2023-05-21T17:44:11.356Z,21.70
2023-05-21T17:46:38.998Z,23.73
2023-05-21T17:49:08.244Z,21.13
2023-05-21T17:51:36.925Z,21.17
2023-05-21T17:54:04.777Z,21.65
2023-05-21T17:56:38.719Z,21.52
2023-05-21T17:59:07.126Z,21.67
2023-05-21T18:01:35.231Z,20.40
2023-05-21T18:04:03.079Z,21.00
2023-05-21T18:06:31.133Z,22.60
2023-05-21T18:08:58.908Z,21.25
2023-05-21T18:11:27.270Z,22.77
2023-05-21T18:13:56.188Z,21.77
2023-05-21T18:16:23.789Z,22.95
2023-05-21T18:18:51.560Z,23.40
2023-05-21T18:21:19.258Z,22.70
2023-05-21T18:23:46.886Z,23.50
2023-05-21T18:26:14.490Z,23.63
2023-05-21T18:28:42.247Z,21.40
2023-05-21T18:31:11.194Z,23.60
2023-05-21T18:33:39.272Z,25.00
2023-05-21T18:36:07.454Z,25.02
2023-05-21T18:38:35.222Z,23.37
2023-05-21T18:41:04.713Z,23.17
2023-05-21T18:43:32.442Z,24.40
2023-05-21T18:46:00.192Z,22.25
2023-05-21T18:48:29.141Z,21.63
2023-05-21T18:50:56.811Z,21.10
2023-05-21T18:53:24.446Z,22.67
2023-05-21T18:55:52.025Z,26.40
2023-05-21T18:58:19.785Z,24.63
2023-05-21T19:00:47.462Z,23.55
2023-05-21T19:03:15.037Z,22.73
2023-05-21T19:05:44.104Z,23.17
2023-05-21T19:08:11.843Z,25.00
2023-05-21T19:10:39.604Z,22.50
2023-05-21T19:13:07.447Z,24.48
2023-05-21T19:15:35.131Z,23.10
2023-05-21T19:18:03.650Z,24.83
2023-05-21T19:20:31.381Z,25.75
2023-05-21T19:23:01.300Z,24.08
2023-05-21T19:25:28.862Z,23.25
2023-05-21T19:27:56.468Z,22.80
2023-05-21T19:30:24.468Z,22.65
2023-05-21T19:32:52.083Z,23.98
2023-05-21T19:35:22.312Z,22.27
2023-05-21T19:37:49.961Z,22.90
2023-05-21T19:40:19.038Z,26.43
2023-05-21T19:42:46.610Z,25.10
2023-05-21T19:45:15.492Z,23.33
2023-05-21T19:47:44.334Z,23.42
2023-05-21T19:50:12.541Z,26.85
2023-05-21T19:52:40.773Z,25.53
2023-05-21T19:55:10.287Z,22.92
2023-05-21T19:57:39.704Z,23.85
2023-05-21T20:00:10.217Z,24.13
2023-05-21T20:02:38.288Z,25.65
2023-05-21T20:05:06.574Z,26.83
2023-05-21T20:07:34.216Z,24.23
2023-05-21T20:10:01.862Z,22.08
2023-05-21T20:12:29.629Z,25.48
2023-05-21T20:15:00.118Z,22.35
2023-05-21T20:17:28.577Z,24.80
2023-05-21T20:19:57.148Z,25.80
2023-05-21T20:22:24.884Z,27.25
2023-05-21T20:24:52.868Z,24.27
2023-05-21T20:27:20.478Z,27.30
2023-05-21T20:29:48.202Z,23.97
2023-05-21T20:32:17.192Z,22.60
2023-05-21T20:34:54.678Z,23.15
2023-05-21T20:37:32.334Z,25.67
2023-05-21T20:40:00.164Z,24.77
2023-05-21T20:42:33.934Z,22.10
2023-05-21T20:45:02.919Z,21.92
2023-05-21T20:47:31.972Z,21.70
2023-05-21T20:50:02.758Z,24.02
2023-05-21T20:52:30.435Z,22.13
2023-05-21T20:55:07.946Z,23.07
2023-05-21T20:57:35.426Z,25.27
2023-05-21T21:00:08.671Z,22.42
2023-05-21T21:02:38.844Z,23.80
2023-05-21T21:05:10.102Z,25.52
2023-05-21T21:07:41.833Z,26.27
2023-05-21T21:10:11.049Z,24.60
2023-05-21T21:12:38.689Z,26.60
2023-05-21T21:15:07.548Z,24.23
2023-05-21T21:17:35.102Z,27.55
2023-05-21T21:20:05.961Z,24.00
2023-05-21T21:22:33.611Z,23.23
2023-05-21T21:25:01.344Z,27.13
2023-05-21T21:27:29.080Z,27.40
2023-05-21T21:29:56.731Z,24.90
2023-05-21T21:32:24.387Z,24.97
2023-05-21T21:34:52.038Z,25.70
2023-05-21T21:37:21.130Z,25.20
2023-05-21T21:39:48.802Z,26.20
2023-05-21T21:42:16.674Z,26.52
2023-05-21T21:44:44.277Z,23.47
2023-05-21T21:47:11.885Z,27.13
2023-05-21T21:49:39.489Z,27.83
2023-05-21T21:52:08.160Z,28.30
2023-05-21T21:54:37.088Z,26.60
2023-05-21T21:57:04.852Z,29.63
2023-05-21T21:59:32.615Z,25.30
2023-05-21T22:02:00.379Z,28.25
2023-05-21T22:04:27.982Z,25.75
2023-05-21T22:06:55.561Z,28.40
2023-05-21T22:09:23.363Z,26.67
2023-05-21T22:11:53.311Z,27.70
2023-05-21T22:14:20.901Z,26.48
2023-05-21T22:16:48.461Z,24.73
2023-05-21T22:19:20.359Z,22.42
2023-05-21T22:21:48.703Z,25.00
2023-05-21T22:24:31.001Z,26.35
2023-05-21T22:27:01.375Z,26.33
2023-05-21T22:29:29.088Z,23.13
2023-05-21T22:31:56.920Z,24.20
2023-05-21T22:34:25.210Z,25.80
2023-05-21T22:36:52.749Z,24.08
2023-05-21T22:39:20.377Z,31.15
2023-05-21T22:41:48.052Z,28.67
2023-05-21T22:44:17.109Z,27.92
2023-05-21T22:46:44.797Z,29.13
2023-05-21T22:49:12.440Z,29.52
2023-05-21T22:51:44.798Z,26.83
2023-05-21T22:54:12.491Z,26.63
2023-05-21T22:56:40.009Z,22.55
2023-05-21T22:59:07.503Z,28.23
2023-05-21T23:01:37.898Z,22.73
2023-05-21T23:04:05.787Z,26.00
2023-05-21T23:06:33.580Z,27.27
2023-05-21T23:09:01.146Z,20.02
2023-05-21T23:11:28.823Z,25.93
2023-05-21T23:13:56.322Z,22.90
2023-05-21T23:16:23.977Z,23.63
2023-05-21T23:18:54.351Z,23.52
2023-05-21T23:21:22.261Z,22.85
2023-05-21T23:23:50.030Z,25.03
2023-05-21T23:26:17.585Z,22.25
2023-05-21T23:28:45.312Z,23.60
2023-05-21T23:31:13.010Z,27.42
2023-05-21T23:33:41.349Z,27.90
2023-05-21T23:36:10.557Z,28.63
2023-05-21T23:38:38.041Z,27.75
2023-05-21T23:41:05.728Z,29.00
2023-05-21T23:43:33.506Z,26.40
2023-05-21T23:46:03.545Z,27.67
2023-05-21T23:48:31.313Z,29.80
2023-05-21T23:50:58.822Z,31.67
2023-05-21T23:53:27.809Z,31.58
2023-05-21T23:55:55.390Z,31.95
2023-05-21T23:58:22.977Z,34.10
